RJFKRJFR

Guest
Details From RJFK - KAGOSHIMA
To RJFR - NEW KITAKYUSHU
Flight Number -
Tags generated
Created
Modified
Stats Distance 124 nm / 229 km
Max Altitude 11,600 ft / 3,536 m
Waypoints 3
Social Downloads 0
Likes 0
Share VATSIM

Download

Looking for another format? Having issues loading an existing format? Contact us
Advertisement - Login to hide

Notes

Basic altitude profile: - Ascent Rate: 2500ft/min - Ascent Speed: 250kts - Cruise Altitude: 35000ft - Cruise Speed: 420kts - Descent Rate: 1500ft/min - Descent Speed: 250kts Options: - Use NATs: yes - Use PACOTS: yes - Use low airways: yes - Use high airways: yes

Route

RJFK TUJUN RJFR

ID Type Via Altitude Latitude Longitude Leg Dist Tot Dist Heading (true) Name
O RJFK APT - 0 ft / 0 m 31.80340˚ 130.71941˚ - 0 nm - KAGOSHIMA
TUJUN FIX - 11,600 ft / 3,536 m 32.86618˚ 130.91152˚ 64 nm 64 nm 9° / 9° -
O RJFR APT - 0 ft / 0 m 33.84594˚ 131.03469˚ 59 nm 123 nm 6° / 6° NEW KITAKYUSHU

Altitude Profile

Advertisement - Login to hide

RJFK

Details ICAO RJFK (KOJ)
Name KAGOSHIMA
Region Japan
Timezone Asia/Tokyo (UTC+9.0)
Stats Elevation 906 ft / 276 m (AMSL)
Location 31.803400° 130.719405°
Runways 1
Magnetic Variation 6.910° W

METAR

RJFK 110000Z 34012G22KT 9999 FEW030 08/00 Q1017 RMK 1CU030 A3005

Decode

TAF

TAF RJFK 102309Z 1100/1206 32015KT 9999 FEW020 BKN050 TEMPO 1100/1108 32017G28KT TEMPO 1200/1206 32017G28KT

Decode

Departure Runways

ID Width Length Bearing (true) Bearing (mag) Surface Threshold Offset Overrun Length
16 150 ft / 46 m 9,861 ft / 3,006 m 150.11° 157.02° Asphalt 0 ft / 0 m 200 ft / 61 m
34 150 ft / 46 m 9,861 ft / 3,006 m 330.11° 337.02° Asphalt 0 ft / 0 m 200 ft / 61 m

RJFR

Details ICAO RJFR (KKJ)
Name NEW KITAKYUSHU
Region Japan
Timezone Asia/Tokyo (UTC+9.0)
Stats Elevation 21 ft / 6 m (AMSL)
Location 33.845940° 131.034689°
Runways 1
Magnetic Variation 7.534° W

METAR

RJFR 110031Z 27016G26KT 9999 -SHRA FEW010 SCT020 BKN030 06/01 Q1018 RMK 1CU010 3CU020 6CU030 A3007

Decode

TAF

TAF TAF RJFR 102318Z 1100/1206 30020G30KT 9000 FEW015 SCT025 BKN035 TEMPO 1106/1109 4000 -TSRAGS BR FEW015 SCT025 FEW025CB BKN035 TEMPO 1110/1118 3000 -SHSNRA

Decode

Destination Runways

ID Width Length Bearing (true) Bearing (mag) Surface Threshold Offset Overrun Length
18 260 ft / 79 m 8,625 ft / 2,629 m 170.36° 177.89° Asphalt 0 ft / 0 m 0 ft / 0 m
36 260 ft / 79 m 8,625 ft / 2,629 m 350.36° 357.89° Asphalt 0 ft / 0 m 0 ft / 0 m

Approach Navaids

Runway Type Ident Frequency Range Bearing (true) Bearing (mag) Slope Elevation
18 Localiser IKQ 109.15 MHz 18 nm / 33 km 169.76° 177.30° - 54 ft / 16 m (AMSL)
18 Glidescope IKQ 109.15 MHz 10 nm / 19 km 170.36° 177.89° 3.00° 46 ft / 14 m (AMSL)

Popular Alternatives